Time;durP1;ratioP1;P1;durP2;ratioP2;P2;SDS_P1;SDS_P2;PMS_P1;PMS_P2;Temp;Humidity;BMP_temperature;BMP_pressure;BME280_temperature;BME280_humidity;BME280_pressure;Samples;Min_cycle;Max_cycle;Signal;HPM_P1;HPM_P2
2023/03/08 00:00:59;;;;;;;31.40;20.70;;;9.20;99.90;;;;;;5093161;28;20179;-86
2023/03/08 00:03:25;;;;;;;32.30;21.60;;;9.10;99.90;;;;;;5094270;28;20403;-89
2023/03/08 00:05:50;;;;;;;29.77;21.40;;;9.10;99.90;;;;;;5093296;28;20460;-89
2023/03/08 00:08:17;;;;;;;30.67;21.63;;;9.10;99.90;;;;;;5094353;28;20421;-86
2023/03/08 00:10:43;;;;;;;29.30;21.38;;;9.10;99.90;;;;;;5093008;28;20534;-88
2023/03/08 00:13:08;;;;;;;31.13;19.67;;;9.10;99.90;;;;;;5094007;28;20232;-89
2023/03/08 00:15:37;;;;;;;28.73;20.10;;;9.10;99.90;;;;;;5094282;28;20164;-85
2023/03/08 00:18:03;;;;;;;23.85;18.80;;;9.20;99.90;;;;;;5092863;28;20732;-88
2023/03/08 00:20:29;;;;;;;28.60;18.52;;;9.20;99.90;;;;;;5092954;28;20179;-86
2023/03/08 00:22:54;;;;;;;21.07;17.23;;;9.20;99.90;;;;;;5093156;28;20287;-89
2023/03/08 00:25:20;;;;;;;26.27;17.57;;;9.20;99.90;;;;;;5095596;28;20243;-88
2023/03/08 00:27:46;;;;;;;27.30;17.90;;;9.20;99.90;;;;;;5094368;28;20494;-85
2023/03/08 00:30:12;;;;;;;22.50;16.50;;;9.30;99.90;;;;;;5092879;28;20470;-85
2023/03/08 00:32:38;;;;;;;21.70;15.80;;;9.30;99.90;;;;;;5093977;28;20275;-90
2023/03/08 00:35:04;;;;;;;20.27;16.30;;;9.40;99.90;;;;;;5092847;28;20211;-87
2023/03/08 00:37:30;;;;;;;20.42;15.85;;;9.40;99.90;;;;;;5094204;28;20539;-86
2023/03/08 00:39:56;;;;;;;21.10;17.17;;;9.50;99.90;;;;;;5093459;28;20256;-87
2023/03/08 00:42:23;;;;;;;24.50;15.90;;;9.50;99.90;;;;;;5094175;28;20192;-88
2023/03/08 00:44:49;;;;;;;23.88;17.75;;;9.50;99.90;;;;;;5092568;28;20215;-89
2023/03/08 00:47:15;;;;;;;23.65;16.48;;;9.50;99.90;;;;;;5093860;28;20192;-86
2023/03/08 00:49:40;;;;;;;24.25;17.30;;;9.60;99.90;;;;;;5092630;28;20640;-85
2023/03/08 00:52:07;;;;;;;24.30;16.37;;;9.60;99.90;;;;;;5094040;28;20287;-86
2023/03/08 00:54:33;;;;;;;25.25;16.60;;;9.60;99.90;;;;;;5092471;28;20173;-88
2023/03/08 00:56:58;;;;;;;23.25;17.50;;;9.60;99.90;;;;;;5092517;28;20203;-89
2023/03/08 00:59:24;;;;;;;25.20;16.13;;;9.50;99.90;;;;;;5094144;28;20659;-84
2023/03/08 01:01:50;;;;;;;25.13;17.23;;;9.50;99.90;;;;;;5097071;28;20188;-88
2023/03/08 01:04:16;;;;;;;22.57;16.97;;;9.50;99.90;;;;;;5095178;28;20216;-87
2023/03/08 01:06:44;;;;;;;22.80;16.47;;;9.50;99.90;;;;;;5092266;28;20960;-86
2023/03/08 01:09:11;;;;;;;23.05;17.75;;;9.50;99.90;;;;;;5092678;28;20181;-89
2023/03/08 01:11:37;;;;;;;21.05;15.93;;;9.50;99.90;;;;;;5093764;28;20181;-89
2023/03/08 01:14:04;;;;;;;24.30;17.23;;;9.50;99.90;;;;;;5093548;28;20228;-86
2023/03/08 01:16:32;;;;;;;21.92;16.25;;;9.50;99.90;;;;;;5092410;28;20188;-89
2023/03/08 01:18:59;;;;;;;23.02;16.23;;;9.50;99.90;;;;;;5093695;28;20680;-89
2023/03/08 01:21:26;;;;;;;25.23;18.25;;;9.50;99.90;;;;;;5093585;28;20184;-85
2023/03/08 01:23:52;;;;;;;24.02;16.75;;;9.50;99.90;;;;;;5093510;28;20199;-87
2023/03/08 01:26:21;;;;;;;24.53;18.23;;;9.60;99.90;;;;;;5092393;28;20189;-86
2023/03/08 01:28:47;;;;;;;22.17;16.08;;;9.50;99.90;;;;;;5093427;28;20496;-86
2023/03/08 01:31:15;;;;;;;21.20;16.10;;;9.60;99.90;;;;;;5093565;28;20177;-89
2023/03/08 01:33:42;;;;;;;23.20;14.80;;;9.60;99.90;;;;;;5092256;28;20560;-89
2023/03/08 01:36:11;;;;;;;20.92;16.00;;;9.60;99.90;;;;;;5096625;28;20236;-86
2023/03/08 01:38:38;;;;;;;19.38;14.95;;;9.60;99.90;;;;;;5098824;28;20197;-88
2023/03/08 01:41:06;;;;;;;21.77;15.20;;;9.60;99.90;;;;;;5095662;28;20181;-89
2023/03/08 01:43:35;;;;;;;21.25;14.35;;;9.60;99.90;;;;;;5092116;28;20196;-87
2023/03/08 01:46:04;;;;;;;20.10;14.65;;;9.60;99.90;;;;;;5091862;28;20259;-88
2023/03/08 01:48:35;;;;;;;22.23;16.02;;;9.60;99.90;;;;;;5091965;28;20295;-88
2023/03/08 01:51:03;;;;;;;16.67;13.52;;;9.70;99.90;;;;;;5091983;28;20196;-85
2023/03/08 01:53:29;;;;;;;16.52;13.02;;;9.80;99.90;;;;;;5096051;28;20393;-89
2023/03/08 01:55:55;;;;;;;15.57;11.50;;;9.80;99.90;;;;;;5095559;28;20183;-89
2023/03/08 01:58:22;;;;;;;16.83;12.48;;;9.80;99.90;;;;;;5096737;28;20188;-89
2023/03/08 02:00:47;;;;;;;14.23;11.40;;;9.90;99.90;;;;;;5095514;28;20176;-87
2023/03/08 02:03:13;;;;;;;14.10;10.50;;;9.90;99.90;;;;;;5095497;28;20192;-86
2023/03/08 02:05:42;;;;;;;13.90;11.50;;;9.90;99.90;;;;;;5095306;28;20244;-87
2023/03/08 02:08:08;;;;;;;13.25;10.18;;;10.10;99.90;;;;;;5095293;28;20808;-86
2023/03/08 02:10:35;;;;;;;12.30;9.65;;;10.00;99.90;;;;;;5096605;28;20176;-87
2023/03/08 02:13:03;;;;;;;14.20;10.60;;;10.00;99.90;;;;;;5095166;28;20236;-87
2023/03/08 02:15:29;;;;;;;12.48;10.43;;;10.00;99.90;;;;;;5096394;28;20172;-88
2023/03/08 02:17:55;;;;;;;11.75;9.32;;;10.00;99.90;;;;;;5099625;28;20199;-86
2023/03/08 02:20:37;;;;;;;10.83;9.20;;;10.00;99.90;;;;;;5095983;28;20180;-87
2023/03/08 02:23:16;;;;;;;12.85;9.02;;;9.90;99.90;;;;;;5095238;28;20219;-89
2023/03/08 02:25:57;;;;;;;11.95;8.80;;;9.90;99.90;;;;;;5094713;28;20204;-86
2023/03/08 02:28:24;;;;;;;11.15;9.50;;;10.00;99.90;;;;;;5095269;28;20287;-87
2023/03/08 02:30:50;;;;;;;10.38;8.88;;;10.00;99.90;;;;;;5094613;28;20596;-86
2023/03/08 02:33:17;;;;;;;11.93;9.03;;;10.00;99.90;;;;;;5095971;28;20196;-88
2023/03/08 02:35:43;;;;;;;10.43;8.13;;;10.00;99.90;;;;;;5094696;28;20188;-89
2023/03/08 02:38:14;;;;;;;15.25;8.98;;;10.00;99.90;;;;;;5094648;28;20189;-87
2023/03/08 02:40:40;;;;;;;7.28;6.57;;;9.90;99.90;;;;;;5095948;28;20172;-85
2023/03/08 02:43:06;;;;;;;9.80;7.50;;;9.90;99.90;;;;;;5096079;28;20226;-87
2023/03/08 02:45:33;;;;;;;9.15;7.30;;;9.90;99.90;;;;;;5095893;28;20464;-87
2023/03/08 02:48:00;;;;;;;7.45;6.63;;;9.90;99.90;;;;;;5096276;28;20675;-89
2023/03/08 02:50:26;;;;;;;9.90;7.80;;;9.90;99.90;;;;;;5095129;28;20191;-88
2023/03/08 02:52:52;;;;;;;10.57;7.65;;;10.00;99.90;;;;;;5096183;28;20692;-89
2023/03/08 02:55:17;;;;;;;6.80;6.10;;;10.00;99.90;;;;;;5099797;28;20177;-88
2023/03/08 02:57:43;;;;;;;9.53;6.60;;;9.90;99.90;;;;;;5097244;28;20188;-88
2023/03/08 03:00:10;;;;;;;11.73;7.53;;;9.90;99.90;;;;;;5094588;28;20649;-89
2023/03/08 03:02:36;;;;;;;9.63;7.32;;;9.90;99.90;;;;;;5094011;28;20543;-85
2023/03/08 03:05:06;;;;;;;10.73;6.70;;;9.90;99.90;;;;;;5094026;28;20322;-84
2023/03/08 03:07:34;;;;;;;7.63;6.93;;;9.90;99.90;;;;;;5095860;28;20207;-86
2023/03/08 03:10:00;;;;;;;8.57;6.55;;;9.90;99.90;;;;;;5094273;28;20173;-86
2023/03/08 03:12:26;;;;;;;9.50;6.77;;;9.90;99.90;;;;;;5094180;28;20218;-87
2023/03/08 03:14:51;;;;;;;8.20;6.50;;;9.90;99.90;;;;;;5094043;28;20312;-88
2023/03/08 03:17:17;;;;;;;9.23;6.63;;;9.90;99.90;;;;;;5094224;28;20203;-86
2023/03/08 03:19:43;;;;;;;7.43;5.60;;;9.90;99.90;;;;;;5093831;28;20172;-87
2023/03/08 03:22:09;;;;;;;7.40;6.23;;;9.90;99.90;;;;;;5094950;28;20259;-86
2023/03/08 03:24:35;;;;;;;7.43;6.33;;;9.90;99.90;;;;;;5094301;28;20463;-88
2023/03/08 03:27:01;;;;;;;9.07;6.53;;;10.00;99.90;;;;;;5093586;28;20443;-86
2023/03/08 03:29:26;;;;;;;7.07;6.37;;;9.90;99.90;;;;;;5093754;28;20625;-85
2023/03/08 03:31:52;;;;;;;6.80;6.07;;;9.80;99.90;;;;;;5093849;28;20185;-87
2023/03/08 03:34:18;;;;;;;11.00;7.17;;;9.90;99.90;;;;;;5095100;28;20165;-86
2023/03/08 03:36:44;;;;;;;9.23;6.07;;;9.90;99.90;;;;;;5093808;28;20696;-86
2023/03/08 03:39:09;;;;;;;9.10;6.90;;;9.80;99.90;;;;;;5094926;28;20203;-85
2023/03/08 03:41:35;;;;;;;7.17;6.47;;;9.80;99.90;;;;;;5093568;28;20212;-89
2023/03/08 03:44:01;;;;;;;8.73;6.57;;;9.80;99.90;;;;;;5095052;28;20702;-86
2023/03/08 03:46:26;;;;;;;7.07;6.37;;;9.90;99.90;;;;;;5093613;28;20790;-88
2023/03/08 03:48:52;;;;;;;9.53;6.67;;;9.90;99.90;;;;;;5093597;28;20196;-87
2023/03/08 03:51:20;;;;;;;11.43;6.80;;;9.80;99.90;;;;;;5093692;28;20199;-89
2023/03/08 03:53:47;;;;;;;13.30;6.97;;;9.90;99.90;;;;;;5093472;28;20440;-86
2023/03/08 03:56:18;;;;;;;11.10;7.47;;;9.90;99.90;;;;;;5098457;28;20234;-87
2023/03/08 03:58:44;;;;;;;28.58;13.52;;;9.90;99.90;;;;;;5093160;28;20223;-86
2023/03/08 04:01:16;;;;;;;17.57;10.37;;;10.00;99.90;;;;;;5093123;28;20215;-86
2023/03/08 04:03:42;;;;;;;15.70;10.65;;;10.00;99.90;;;;;;5094322;28;20275;-88
2023/03/08 04:06:16;;;;;;;11.50;7.97;;;10.00;99.90;;;;;;5093127;28;20692;-88
2023/03/08 04:08:42;;;;;;;9.77;7.25;;;10.10;99.90;;;;;;5092986;28;20196;-86
2023/03/08 04:11:10;;;;;;;9.27;7.53;;;10.10;99.90;;;;;;5093086;28;20206;-87
2023/03/08 04:13:36;;;;;;;8.65;6.75;;;10.20;99.90;;;;;;5094362;28;20696;-89
2023/03/08 04:16:12;;;;;;;8.55;6.32;;;10.30;99.90;;;;;;5092083;28;20267;-86
2023/03/08 04:18:38;;;;;;;7.45;6.50;;;10.40;99.90;;;;;;5092738;28;20198;-89
2023/03/08 04:21:03;;;;;;;7.40;5.60;;;10.50;99.90;;;;;;5094430;28;20181;-85
2023/03/08 04:23:29;;;;;;;6.73;6.13;;;10.60;99.90;;;;;;5094050;28;20203;-87
2023/03/08 04:25:55;;;;;;;7.27;6.57;;;10.80;99.90;;;;;;5092850;28;20215;-87
2023/03/08 04:28:20;;;;;;;8.23;6.50;;;10.90;99.90;;;;;;5092751;28;20196;-88
2023/03/08 04:30:46;;;;;;;8.27;6.23;;;11.00;99.90;;;;;;5092762;28;20168;-86
2023/03/08 04:33:12;;;;;;;7.20;6.50;;;11.10;99.90;;;;;;5093907;28;20203;-87
2023/03/08 04:35:37;;;;;;;7.63;5.57;;;11.10;99.90;;;;;;5093208;28;20176;-86
2023/03/08 04:38:03;;;;;;;6.90;6.17;;;11.10;99.90;;;;;;5093026;28;20210;-89
2023/03/08 04:40:29;;;;;;;6.37;5.00;;;11.00;99.90;;;;;;5094263;28;20198;-88
2023/03/08 04:42:55;;;;;;;6.83;5.23;;;11.00;99.90;;;;;;5094554;28;20271;-88
2023/03/08 04:45:20;;;;;;;5.90;5.18;;;11.00;99.90;;;;;;5092508;28;20219;-88
2023/03/08 04:47:46;;;;;;;6.23;5.00;;;11.00;99.90;;;;;;5094344;28;20196;-88
2023/03/08 04:50:12;;;;;;;5.17;4.60;;;11.00;99.90;;;;;;5093801;28;20433;-85
2023/03/08 04:52:38;;;;;;;5.55;4.60;;;11.00;99.90;;;;;;5093500;28;20192;-89
2023/03/08 04:55:05;;;;;;;6.73;5.33;;;11.00;99.90;;;;;;5092260;28;20221;-86
2023/03/08 04:57:31;;;;;;;10.98;5.13;;;11.00;99.90;;;;;;5093942;28;21089;-88
2023/03/08 04:59:56;;;;;;;4.97;4.40;;;11.00;99.90;;;;;;5093782;28;20273;-87
2023/03/08 05:02:22;;;;;;;6.83;4.80;;;11.10;99.90;;;;;;5093972;28;20429;-88
2023/03/08 05:04:49;;;;;;;10.13;7.68;;;11.10;99.90;;;;;;5094001;28;20207;-88
2023/03/08 05:07:14;;;;;;;10.38;5.93;;;11.20;99.90;;;;;;5093839;28;20593;-86
2023/03/08 05:09:40;;;;;;;8.30;5.60;;;11.30;99.90;;;;;;5093891;28;20317;-87
2023/03/08 05:12:06;;;;;;;8.07;5.67;;;11.30;99.90;;;;;;5093972;28;20223;-89
2023/03/08 05:14:32;;;;;;;7.88;5.93;;;11.30;99.90;;;;;;5092349;28;20773;-89
2023/03/08 05:16:58;;;;;;;8.07;6.03;;;11.20;99.90;;;;;;5092419;28;20228;-89
2023/03/08 05:19:24;;;;;;;7.80;6.37;;;11.20;99.90;;;;;;5092378;28;20212;-86
2023/03/08 05:21:50;;;;;;;6.82;5.20;;;11.20;99.90;;;;;;5094768;28;20575;-86
2023/03/08 05:24:16;;;;;;;10.10;5.78;;;11.20;99.90;;;;;;5096709;28;20164;-87
2023/03/08 05:26:42;;;;;;;6.97;5.30;;;11.10;99.90;;;;;;5095565;28;20241;-88
2023/03/08 05:29:08;;;;;;;7.80;5.40;;;11.00;99.90;;;;;;5092078;28;20184;-88
2023/03/08 05:31:36;;;;;;;11.30;6.90;;;10.90;99.90;;;;;;5094743;28;20527;-88
2023/03/08 05:34:02;;;;;;;14.45;7.60;;;10.80;99.90;;;;;;5093878;28;20177;-88
2023/03/08 05:36:28;;;;;;;13.77;7.43;;;10.80;99.90;;;;;;5092670;28;20248;-89
2023/03/08 05:38:54;;;;;;;12.47;6.77;;;10.80;99.90;;;;;;5095104;28;20193;-87
2023/03/08 05:41:20;;;;;;;7.78;5.75;;;10.70;99.90;;;;;;5093955;28;20188;-86
2023/03/08 05:43:46;;;;;;;7.97;5.68;;;10.70;99.90;;;;;;5094463;28;20196;-85
2023/03/08 05:46:14;;;;;;;10.33;6.70;;;10.60;99.90;;;;;;5093190;28;20216;-86
2023/03/08 05:48:40;;;;;;;9.20;7.03;;;10.60;99.90;;;;;;5090879;28;20957;-88
2023/03/08 05:51:16;;;;;;;7.57;6.10;;;10.60;99.90;;;;;;5092731;28;20203;-86
2023/03/08 05:53:42;;;;;;;9.30;7.25;;;10.70;99.90;;;;;;5092136;28;20440;-85
2023/03/08 05:56:15;;;;;;;9.30;6.83;;;10.60;99.90;;;;;;5093297;28;20192;-89
2023/03/08 05:58:41;;;;;;;7.50;5.53;;;10.60;99.90;;;;;;5082898;28;20204;-85
2023/03/08 06:01:16;;;;;;;7.53;6.60;;;10.60;99.90;;;;;;5085064;28;20707;-85
2023/03/08 06:03:42;;;;;;;7.68;6.60;;;10.60;99.90;;;;;;5083521;28;20403;-88
2023/03/08 06:06:08;;;;;;;6.80;5.90;;;10.60;99.90;;;;;;5085942;28;20244;-85
2023/03/08 06:08:34;;;;;;;8.20;6.90;;;10.60;99.90;;;;;;5082311;28;20250;-85
2023/03/08 06:11:00;;;;;;;7.83;6.10;;;10.50;99.90;;;;;;5081877;28;20388;-89
2023/03/08 06:13:26;;;;;;;8.90;6.20;;;10.50;99.90;;;;;;5087220;28;20454;-89
2023/03/08 06:15:56;;;;;;;10.07;6.90;;;10.50;99.90;;;;;;5092581;28;20407;-87
2023/03/08 06:18:23;;;;;;;12.30;7.80;;;10.50;99.90;;;;;;5092763;28;20203;-86
2023/03/08 06:21:07;;;;;;;9.05;6.90;;;10.60;99.90;;;;;;5094781;28;20177;-89
2023/03/08 06:23:34;;;;;;;11.15;7.60;;;10.60;99.90;;;;;;5093339;28;20609;-88
2023/03/08 06:26:00;;;;;;;10.40;7.28;;;10.60;99.90;;;;;;5096225;28;20200;-87
2023/03/08 06:28:27;;;;;;;11.52;8.32;;;10.60;99.90;;;;;;5096517;28;20222;-89
2023/03/08 06:30:54;;;;;;;9.43;8.07;;;10.60;99.90;;;;;;5095610;28;20180;-87
2023/03/08 06:33:22;;;;;;;14.15;9.80;;;10.50;99.90;;;;;;5089425;28;20324;-85
2023/03/08 06:36:01;;;;;;;14.23;11.65;;;10.50;99.90;;;;;;5087800;28;20172;-88
2023/03/08 06:38:31;;;;;;;39.30;35.20;;;10.60;99.90;;;;;;5088892;28;20593;-86
2023/03/08 06:40:58;;;;;;;13.77;11.05;;;10.50;99.90;;;;;;5083561;28;20560;-86
2023/03/08 06:43:24;;;;;;;15.43;13.82;;;10.60;99.90;;;;;;5086964;28;20673;-89
2023/03/08 06:45:50;;;;;;;15.10;11.05;;;10.60;99.90;;;;;;5082653;28;20231;-89
2023/03/08 06:48:17;;;;;;;17.85;12.77;;;10.70;99.90;;;;;;5093460;28;20200;-89
2023/03/08 06:50:42;;;;;;;12.15;10.88;;;10.70;99.90;;;;;;5094681;28;20188;-86
2023/03/08 06:53:08;;;;;;;15.23;11.03;;;10.80;99.90;;;;;;5094704;28;20256;-89
2023/03/08 06:55:38;;;;;;;39.55;21.35;;;10.80;99.90;;;;;;5090302;28;20184;-88
2023/03/08 06:58:05;;;;;;;57.00;34.80;;;10.70;99.90;;;;;;5092153;28;20292;-89
2023/03/08 07:00:31;;;;;;;35.25;25.08;;;10.60;99.90;;;;;;5092097;28;20180;-85
2023/03/08 07:02:58;;;;;;;35.15;24.73;;;10.60;99.90;;;;;;5090094;28;20555;-89
2023/03/08 07:05:24;;;;;;;25.17;17.63;;;10.60;99.90;;;;;;5088491;28;20212;-88
2023/03/08 07:07:50;;;;;;;16.58;11.50;;;10.60;99.90;;;;;;5087480;28;20208;-89
2023/03/08 07:10:19;;;;;;;12.63;9.95;;;10.60;99.90;;;;;;5094012;28;20172;-88
2023/03/08 07:12:47;;;;;;;10.88;9.48;;;10.60;99.90;;;;;;5091541;28;20222;-87
2023/03/08 07:15:14;;;;;;;11.80;9.80;;;10.50;99.90;;;;;;5086885;28;20638;-86
2023/03/08 07:17:42;;;;;;;21.30;16.90;;;10.50;99.90;;;;;;5084902;28;20566;-88
2023/03/08 07:20:09;;;;;;;17.42;10.75;;;10.50;99.90;;;;;;5081693;28;20548;-85
2023/03/08 07:22:35;;;;;;;22.52;12.95;;;10.50;99.90;;;;;;5090234;28;20677;-86
2023/03/08 07:25:01;;;;;;;23.63;14.93;;;10.50;99.90;;;;;;5087245;28;20220;-86
2023/03/08 07:27:26;;;;;;;17.70;10.40;;;10.60;99.90;;;;;;5091348;28;20475;-86
2023/03/08 07:29:52;;;;;;;12.93;8.37;;;10.60;99.90;;;;;;5092922;28;20168;-86
2023/03/08 07:32:18;;;;;;;11.30;8.43;;;10.60;99.90;;;;;;5082235;28;20200;-85
2023/03/08 07:34:44;;;;;;;16.87;9.47;;;10.70;99.90;;;;;;5079104;28;20204;-88
2023/03/08 07:37:14;;;;;;;12.70;9.05;;;10.70;99.90;;;;;;5080552;28;20208;-87
2023/03/08 07:39:41;;;;;;;13.30;9.65;;;10.60;99.90;;;;;;5090736;28;20172;-86
2023/03/08 07:42:07;;;;;;;15.90;12.07;;;10.60;99.90;;;;;;5085907;28;20417;-85
2023/03/08 07:44:32;;;;;;;15.30;10.55;;;10.60;99.90;;;;;;5085513;28;20216;-86
2023/03/08 07:46:59;;;;;;;12.37;9.57;;;10.50;99.90;;;;;;5091106;28;20578;-89
2023/03/08 07:49:25;;;;;;;15.65;10.75;;;10.50;99.90;;;;;;5090309;28;20215;-85
2023/03/08 07:51:52;;;;;;;15.63;11.03;;;10.50;99.90;;;;;;5088277;28;20222;-87
2023/03/08 07:54:17;;;;;;;15.80;10.30;;;10.40;99.90;;;;;;5084950;28;20195;-85
2023/03/08 07:56:43;;;;;;;17.73;11.50;;;10.40;99.90;;;;;;5087516;28;20184;-89
2023/03/08 07:59:09;;;;;;;17.30;11.53;;;10.40;99.90;;;;;;5084400;28;20410;-88
2023/03/08 08:01:37;;;;;;;16.87;10.47;;;10.50;99.90;;;;;;5078024;28;20436;-86
2023/03/08 08:04:03;;;;;;;14.02;11.32;;;10.60;99.90;;;;;;5090438;28;20387;-88
2023/03/08 08:06:29;;;;;;;15.67;10.93;;;10.60;99.90;;;;;;5083631;28;20247;-85
2023/03/08 08:08:55;;;;;;;17.13;11.10;;;10.60;99.90;;;;;;5090465;28;21228;-86
2023/03/08 08:11:21;;;;;;;14.50;10.95;;;10.70;99.90;;;;;;5073256;28;20189;-89
2023/03/08 08:13:47;;;;;;;15.80;12.20;;;10.90;99.90;;;;;;5073574;28;20830;-86
2023/03/08 08:16:14;;;;;;;18.47;12.07;;;10.90;99.90;;;;;;5087559;28;20184;-89
2023/03/08 08:18:39;;;;;;;18.85;12.10;;;11.10;99.90;;;;;;5087307;28;20428;-89
2023/03/08 08:21:08;;;;;;;17.43;11.43;;;11.20;99.90;;;;;;5079729;28;20189;-89
2023/03/08 08:23:35;;;;;;;13.43;10.45;;;11.30;99.90;;;;;;5067120;28;20270;-86
2023/03/08 08:26:04;;;;;;;77.90;44.22;;;11.40;99.90;;;;;;5070749;28;20233;-85
2023/03/08 08:28:31;;;;;;;17.30;10.85;;;11.50;99.90;;;;;;5083666;28;20733;-89
2023/03/08 08:31:05;;;;;;;13.75;9.95;;;11.50;99.90;;;;;;5084716;28;20192;-89
2023/03/08 08:33:31;;;;;;;13.77;9.60;;;11.50;99.90;;;;;;5084199;28;20553;-86
2023/03/08 08:35:58;;;;;;;16.20;10.63;;;11.50;99.90;;;;;;5082810;28;20168;-89
2023/03/08 08:38:25;;;;;;;14.20;11.15;;;11.50;99.90;;;;;;5088785;28;20192;-87
2023/03/08 08:40:51;;;;;;;17.10;10.55;;;11.60;99.90;;;;;;5081280;28;20183;-85
2023/03/08 08:43:17;;;;;;;16.05;10.63;;;11.60;99.90;;;;;;5067836;28;20359;-86
2023/03/08 08:45:47;;;;;;;13.77;10.23;;;11.60;99.90;;;;;;5075013;28;20283;-86
2023/03/08 08:48:13;;;;;;;14.85;10.75;;;11.60;99.90;;;;;;5080851;28;20196;-88
2023/03/08 08:50:40;;;;;;;15.27;11.33;;;11.70;99.90;;;;;;5080823;28;20222;-85
2023/03/08 08:53:07;;;;;;;16.58;10.50;;;11.70;99.90;;;;;;5080099;28;20449;-89
2023/03/08 08:55:33;;;;;;;19.48;14.43;;;11.70;99.90;;;;;;5082595;28;20194;-89
2023/03/08 08:57:59;;;;;;;27.20;14.03;;;11.70;99.90;;;;;;5081374;28;20504;-88
2023/03/08 09:00:25;;;;;;;20.58;12.50;;;11.80;99.90;;;;;;5079293;28;20169;-85
2023/03/08 09:02:51;;;;;;;19.33;10.93;;;11.80;99.90;;;;;;5083476;28;20211;-89
2023/03/08 09:05:16;;;;;;;13.10;9.87;;;11.80;99.90;;;;;;5070499;28;20740;-85
2023/03/08 09:07:42;;;;;;;16.23;10.50;;;11.80;99.90;;;;;;5070580;28;20325;-86
2023/03/08 09:10:08;;;;;;;14.30;11.40;;;11.80;99.90;;;;;;5089139;28;20225;-87
2023/03/08 09:12:34;;;;;;;17.02;12.25;;;11.90;99.90;;;;;;5080299;28;20208;-87
2023/03/08 09:15:00;;;;;;;17.60;11.77;;;11.90;99.90;;;;;;5085324;28;20184;-86
2023/03/08 09:17:25;;;;;;;21.53;14.67;;;12.00;99.90;;;;;;5084765;28;20211;-89
2023/03/08 09:19:51;;;;;;;21.37;14.17;;;12.00;99.90;;;;;;5086247;28;20630;-88
2023/03/08 09:22:17;;;;;;;15.83;12.57;;;12.00;99.90;;;;;;5087239;28;20685;-86
2023/03/08 09:24:46;;;;;;;14.60;11.73;;;12.00;99.90;;;;;;5091781;28;20295;-89
2023/03/08 09:27:12;;;;;;;17.00;10.85;;;12.10;99.90;;;;;;5092574;28;20494;-87
2023/03/08 09:29:37;;;;;;;22.53;13.33;;;12.10;99.90;;;;;;5088605;28;20809;-87
2023/03/08 09:32:04;;;;;;;25.20;16.80;;;12.20;99.90;;;;;;5090233;28;20674;-86
2023/03/08 09:34:30;;;;;;;13.45;10.38;;;12.30;99.90;;;;;;5092445;28;20181;-86
2023/03/08 09:36:56;;;;;;;13.70;10.18;;;12.30;99.90;;;;;;5095314;28;20204;-89
2023/03/08 09:39:22;;;;;;;16.87;10.50;;;12.30;99.90;;;;;;5092605;28;20713;-86
2023/03/08 09:41:48;;;;;;;14.32;10.75;;;12.40;99.90;;;;;;5088942;28;20429;-89
2023/03/08 09:44:42;;;;;;;15.63;10.70;;;12.50;99.90;;;;;;5079443;28;20177;-90
2023/03/08 09:47:20;;;;;;;18.05;12.48;;;12.60;99.90;;;;;;5090327;28;20208;-90
2023/03/08 09:49:50;;;;;;;17.10;12.53;;;12.60;99.90;;;;;;5094833;28;20176;-90
2023/03/08 09:52:21;;;;;;;18.20;12.88;;;12.60;99.90;;;;;;5092634;28;20961;-89
2023/03/08 09:54:49;;;;;;;15.30;11.40;;;12.50;99.90;;;;;;5094597;28;20157;-89
2023/03/08 09:57:21;;;;;;;19.85;12.70;;;12.70;99.90;;;;;;5087999;28;20483;-86
2023/03/08 09:59:59;;;;;;;21.03;14.13;;;12.80;99.90;;;;;;5087906;28;20173;-87
2023/03/08 10:03:06;;;;;;;17.70;11.53;;;13.10;99.90;;;;;;5089899;28;20625;-87
2023/03/08 10:05:40;;;;;;;14.70;10.17;;;13.30;99.90;;;;;;5085530;28;20472;-90
2023/03/08 10:08:18;;;;;;;13.63;10.30;;;13.50;99.90;;;;;;5079129;28;20785;-87
2023/03/08 10:11:00;;;;;;;15.40;11.03;;;13.90;99.90;;;;;;5078908;28;20970;-88
2023/03/08 10:13:35;;;;;;;14.80;10.50;;;14.20;99.90;;;;;;5078174;28;20992;-90
2023/03/08 10:16:21;;;;;;;16.60;10.27;;;14.40;99.90;;;;;;5081712;28;20436;-87
2023/03/08 10:18:50;;;;;;;14.27;10.17;;;14.70;99.90;;;;;;5081609;28;20505;-90
2023/03/08 10:21:18;;;;;;;13.73;9.43;;;15.20;99.90;;;;;;5086053;28;20433;-87
2023/03/08 10:24:10;;;;;;;15.87;10.23;;;15.50;99.90;;;;;;5082799;28;20430;-88
2023/03/08 10:26:36;;;;;;;12.20;9.27;;;15.50;99.90;;;;;;5083784;28;20477;-90
2023/03/08 10:29:02;;;;;;;13.50;9.70;;;15.30;99.90;;;;;;5087611;28;20417;-86
2023/03/08 10:31:32;;;;;;;13.93;9.77;;;15.10;99.90;;;;;;5082050;28;20189;-88
2023/03/08 10:34:20;;;;;;;90.03;54.77;;;14.90;99.90;;;;;;5081108;28;20532;-92
2023/03/08 10:36:47;;;;;;;17.27;10.27;;;14.60;99.90;;;;;;5089530;28;20449;-90
2023/03/08 10:39:13;;;;;;;13.80;9.33;;;14.50;99.90;;;;;;5089413;28;20434;-87
2023/03/08 10:41:46;;;;;;;12.80;10.40;;;14.60;99.90;;;;;;5105311;28;20451;-91
2023/03/08 10:44:35;;;;;;;12.63;9.43;;;14.70;99.90;;;;;;5087236;28;20422;-90
2023/03/08 10:47:03;;;;;;;15.90;9.93;;;14.60;99.90;;;;;;5086771;28;20979;-90
2023/03/08 10:49:29;;;;;;;14.20;9.77;;;14.80;99.90;;;;;;5084966;28;20433;-86
2023/03/08 10:52:00;;;;;;;13.27;9.50;;;15.10;99.90;;;;;;5089995;28;20479;-88
2023/03/08 10:54:27;;;;;;;13.53;10.37;;;15.20;99.90;;;;;;5088729;28;20185;-90
2023/03/08 10:56:57;;;;;;;17.40;11.13;;;15.30;99.90;;;;;;5095967;28;20440;-92
2023/03/08 10:59:31;;;;;;;14.10;10.90;;;15.40;99.90;;;;;;5083641;28;20432;-91
2023/03/08 11:02:01;;;;;;;13.30;10.10;;;15.40;99.90;;;;;;5093939;28;20814;-87
2023/03/08 11:04:30;;;;;;;14.50;10.50;;;15.50;99.90;;;;;;5086834;28;20429;-91
2023/03/08 11:06:55;;;;;;;147.73;74.97;;;15.40;99.90;;;;;;5088739;28;20989;-90
2023/03/08 11:09:28;;;;;;;15.50;9.27;;;15.20;99.90;;;;;;5076664;28;20477;-87
2023/03/08 11:11:58;;;;;;;14.27;10.80;;;15.20;99.90;;;;;;5087145;28;20463;-90
2023/03/08 11:14:25;;;;;;;14.63;10.03;;;15.20;99.90;;;;;;5088302;28;20485;-88
2023/03/08 11:17:18;;;;;;;14.23;9.77;;;15.10;99.90;;;;;;5080119;28;20492;-88
2023/03/08 11:20:09;;;;;;;13.70;10.23;;;15.10;99.90;;;;;;5089563;28;20428;-87
2023/03/08 11:22:44;;;;;;;14.57;11.30;;;15.10;99.90;;;;;;5082952;28;21012;-89
2023/03/08 11:25:10;;;;;;;15.00;10.20;;;15.20;99.90;;;;;;5083499;28;20512;-87
2023/03/08 11:27:55;;;;;;;14.03;10.10;;;15.20;99.90;;;;;;5090399;28;20507;-87
2023/03/08 11:30:48;;;;;;;15.40;10.70;;;15.40;99.90;;;;;;5092501;28;20216;-88
2023/03/08 11:33:46;;;;;;;14.00;10.17;;;15.40;99.90;;;;;;5087661;28;20514;-90
2023/03/08 11:36:37;;;;;;;16.70;11.17;;;15.30;99.90;;;;;;5103040;28;20532;-88
2023/03/08 11:39:21;;;;;;;15.10;11.10;;;15.20;99.90;;;;;;5087207;28;20429;-89
2023/03/08 11:42:15;;;;;;;14.40;11.67;;;15.20;99.90;;;;;;5085462;28;20789;-92
2023/03/08 11:44:52;;;;;;;15.70;10.97;;;15.20;99.90;;;;;;5086711;28;20465;-93
2023/03/08 11:47:29;;;;;;;16.40;11.23;;;15.10;99.90;;;;;;5096349;28;20448;-89
2023/03/08 11:50:04;;;;;;;13.90;11.07;;;14.90;99.90;;;;;;5087953;28;20432;-91
2023/03/08 11:52:45;;;;;;;13.60;11.07;;;14.80;99.90;;;;;;5089364;28;20480;-92
2023/03/08 11:55:41;;;;;;;15.30;11.30;;;14.80;99.90;;;;;;5083500;28;20448;-91
2023/03/08 11:58:13;;;;;;;14.17;10.87;;;14.90;99.90;;;;;;5083837;28;20660;-92
2023/03/08 12:00:42;;;;;;;13.40;10.77;;;14.90;99.90;;;;;;5086074;28;20433;-87
2023/03/08 12:03:37;;;;;;;16.40;10.57;;;14.90;99.90;;;;;;5081764;28;20461;-88
2023/03/08 12:06:14;;;;;;;18.70;13.20;;;14.90;99.90;;;;;;5082081;28;20608;-87
2023/03/08 12:09:00;;;;;;;14.47;11.60;;;14.80;99.90;;;;;;5082597;28;20505;-87
2023/03/08 12:11:30;;;;;;;14.33;9.33;;;14.90;99.90;;;;;;5077973;28;20491;-92
2023/03/08 12:14:19;;;;;;;13.17;10.80;;;15.00;99.90;;;;;;5084895;28;20457;-88
2023/03/08 12:17:16;;;;;;;14.40;9.57;;;15.00;99.90;;;;;;5079144;28;20989;-87
2023/03/08 12:19:52;;;;;;;15.67;10.63;;;15.10;99.90;;;;;;5085953;28;20451;-91
2023/03/08 12:22:42;;;;;;;11.77;9.63;;;15.10;99.90;;;;;;5085739;28;20471;-93
2023/03/08 12:25:16;;;;;;;15.10;10.77;;;14.90;99.90;;;;;;5078136;28;20475;-86
2023/03/08 12:27:55;;;;;;;14.40;9.93;;;14.80;99.90;;;;;;5078679;28;20540;-87
2023/03/08 12:30:41;;;;;;;13.87;8.97;;;14.80;99.90;;;;;;5082015;28;20418;-86
2023/03/08 12:33:11;;;;;;;11.40;8.40;;;14.90;99.90;;;;;;5079838;28;20463;-89
2023/03/08 12:35:48;;;;;;;11.83;8.60;;;14.90;99.90;;;;;;5084770;28;20422;-90
2023/03/08 12:38:14;;;;;;;10.77;7.70;;;14.80;99.90;;;;;;5073860;28;21128;-87
2023/03/08 12:40:45;;;;;;;10.53;8.83;;;14.70;99.90;;;;;;5079916;28;20428;-85
2023/03/08 12:43:26;;;;;;;11.30;9.77;;;14.60;99.90;;;;;;5083454;28;21154;-90
2023/03/08 12:46:07;;;;;;;12.17;8.63;;;14.80;99.90;;;;;;5077486;28;21068;-90